Погода Ропотамона 2 недели

Бургас, Болгария

14 - 27 июня
  • 14июня
    Сегодня
    +17°
    +23°
    Пасмурно, дожди с грозами
    ВремяПогодаТемператураВлажностьДавлениеВетер, м/сВероятность осадков
    00:00Практически безоблачно+23°C88 %757 мм4.0 м/с4 %
    03:00Небольшая облачность+22°C91 %757 мм5.1 м/с11 %
    06:00Облачно с прояснениями+22°C97 %756 мм1.0 м/с6 %
    09:00Облачно с прояснениями+23°C86 %757 мм4.1 м/с42 %
    12:00Небольшая облачность, возможен дождь с грозой+23°C82 %757 мм4.4 м/с55 %
    15:00Пасмурно, дожди с грозами+21°C84 %757 мм4.0 м/с59 %
    18:00Небольшая облачность, ливень+19°C82 %757 мм4.2 м/с66 %
    21:00Ясно и безоблачно+21°C66 %758 мм4.1 м/с19 %
  • 15июня
    Суббота
    +18°
    +27°
    Небольшая облачность
    ВремяПогодаТемператураВлажностьДавлениеВетер, м/сВероятность осадков
    00:00Ясно и безоблачно+20°C66 %758 мм4.9 м/с4 %
    03:00Ясно и безоблачно+20°C61 %758 мм5.5 м/с6 %
    06:00Ясно и безоблачно+18°C66 %759 мм4.1 м/с4 %
    09:00Ясно и безоблачно+20°C62 %759 мм5.0 м/с2 %
    12:00Ясно и безоблачно+24°C57 %759 мм4.0 м/с2 %
    15:00Небольшая облачность+26°C49 %759 мм1.5 м/с3 %
    18:00Ясно и безоблачно+23°C67 %758 мм4.1 м/с3 %
    21:00Ясно и безоблачно+22°C74 %758 мм3.0 м/с2 %
  • 16июня
    Воскресенье
    +17°
    +27°
    Ясно и безоблачно
    ВремяПогодаТемператураВлажностьДавлениеВетер, м/сВероятность осадков
    00:00Ясно и безоблачно+19°C82 %759 мм1.8 м/с2 %
    03:00Ясно и безоблачно+19°C81 %758 мм2.4 м/с2 %
    06:00Ясно и безоблачно+18°C82 %758 мм2.6 м/с2 %
    09:00Ясно и безоблачно+23°C66 %759 мм1.4 м/с2 %
    12:00Ясно и безоблачно+26°C55 %759 мм1.6 м/с2 %
    15:00Ясно и безоблачно+26°C58 %759 мм4.4 м/с4 %
    18:00Ясно и безоблачно+26°C58 %758 мм4.2 м/с2 %
    21:00Ясно и безоблачно+23°C68 %759 мм3.6 м/с2 %
  • 17июня
    Понедельник
    +19°
    +28°
    Ясно и безоблачно
    ВремяПогодаТемператураВлажностьДавлениеВетер, м/сВероятность осадков
    00:00Ясно и безоблачно+21°C68 %759 мм3.3 м/с2 %
    03:00Ясно и безоблачно+19°C81 %760 мм2.3 м/с2 %
    06:00Ясно и безоблачно+18°C81 %760 мм1.7 м/с2 %
    09:00Ясно и безоблачно+24°C65 %761 мм0.7 м/с2 %
    12:00Ясно и безоблачно+27°C57 %761 мм1.9 м/с2 %
    15:00Ясно и безоблачно+28°C57 %761 мм3.4 м/с2 %
    18:00Ясно и безоблачно+28°C54 %760 мм3.9 м/с2 %
    21:00Ясно и безоблачно+24°C65 %761 мм3.0 м/с2 %
  • 18июня
    Вторник
    +21°
    +28°
    Ясно и безоблачно
    ВремяПогодаТемператураВлажностьДавлениеВетер, м/сВероятность осадков
    00:00Ясно и безоблачно+23°C64 %761 мм2.9 м/с2 %
    03:00Ясно и безоблачно+21°C73 %762 мм2.0 м/с2 %
    06:00Ясно и безоблачно+20°C76 %762 мм1.2 м/с2 %
    09:00Ясно и безоблачно+24°C62 %763 мм0.5 м/с2 %
    12:00Ясно и безоблачно+27°C59 %763 мм2.7 м/с2 %
    15:00Ясно и безоблачно+27°C57 %763 мм2.9 м/с2 %
    18:00Ясно и безоблачно+26°C63 %763 мм2.6 м/с2 %
    21:00Ясно и безоблачно+23°C83 %763 мм1.7 м/с2 %
Мы используем cookies
Соглашаюсь